createdAt,value
2022-09-20T00:03:15.874Z,1.30
2022-09-20T00:06:59.916Z,1.20
2022-09-20T00:10:42.870Z,1.23
2022-09-20T00:14:25.650Z,0.90
2022-09-20T00:18:08.539Z,1.37
2022-09-20T00:21:51.226Z,1.07
2022-09-20T00:25:35.284Z,1.20
2022-09-20T00:29:17.933Z,1.17
2022-09-20T00:33:00.624Z,1.20
2022-09-20T00:36:42.756Z,1.00
2022-09-20T00:40:27.061Z,1.30
2022-09-20T00:44:45.452Z,1.23
2022-09-20T00:48:30.532Z,1.20
2022-09-20T00:52:13.300Z,1.17
2022-09-20T00:55:58.327Z,1.20
2022-09-20T00:59:43.007Z,1.00
2022-09-20T01:03:31.348Z,1.10
2022-09-20T01:07:16.210Z,1.20
2022-09-20T01:10:58.950Z,1.30
2022-09-20T01:14:42.592Z,1.10
2022-09-20T01:18:25.361Z,1.10
2022-09-20T01:22:16.113Z,1.13
2022-09-20T01:26:31.115Z,1.20
2022-09-20T01:30:20.341Z,1.10
2022-09-20T01:34:05.567Z,1.10
2022-09-20T01:37:58.138Z,1.30
2022-09-20T01:41:45.888Z,1.10
2022-09-20T01:45:31.429Z,1.37
2022-09-20T01:49:22.026Z,1.30
2022-09-20T01:53:42.074Z,1.67
2022-09-20T01:57:46.684Z,1.00
2022-09-20T02:01:52.662Z,1.00
2022-09-20T02:05:49.070Z,1.07
2022-09-20T02:09:56.943Z,1.13
2022-09-20T02:13:59.835Z,1.03
2022-09-20T02:17:54.426Z,1.20
2022-09-20T02:21:40.064Z,1.13
2022-09-20T02:25:35.893Z,1.30
2022-09-20T02:29:24.517Z,1.50
2022-09-20T02:33:32.755Z,1.27
2022-09-20T02:37:31.941Z,1.20
2022-09-20T02:41:28.290Z,1.40
2022-09-20T02:45:17.285Z,1.20
2022-09-20T02:49:05.585Z,1.20
2022-09-20T02:52:55.842Z,1.47
2022-09-20T02:56:44.407Z,1.60
2022-09-20T03:00:29.410Z,1.40
2022-09-20T03:04:22.851Z,1.40
2022-09-20T03:08:15.756Z,1.20
2022-09-20T03:12:10.481Z,1.53
2022-09-20T03:16:06.509Z,1.40
2022-09-20T03:20:01.762Z,1.40
2022-09-20T03:23:51.748Z,1.30
2022-09-20T03:27:42.682Z,1.47
2022-09-20T03:31:40.168Z,1.60
2022-09-20T03:35:40.174Z,1.40
2022-09-20T03:39:33.009Z,1.83
2022-09-20T03:43:25.870Z,1.57
2022-09-20T03:47:15.971Z,1.60
2022-09-20T03:51:14.389Z,1.70
2022-09-20T03:55:09.751Z,1.60
2022-09-20T03:59:13.579Z,1.50
2022-09-20T04:03:15.460Z,1.67
2022-09-20T04:07:07.441Z,1.50
2022-09-20T04:11:00.308Z,1.83
2022-09-20T04:14:48.737Z,1.30
2022-09-20T04:18:36.284Z,1.43
2022-09-20T04:22:22.057Z,1.80
2022-09-20T04:26:05.196Z,1.57
2022-09-20T04:29:53.081Z,1.90
2022-09-20T04:33:41.489Z,1.70
2022-09-20T04:37:33.014Z,1.63
2022-09-20T04:41:27.945Z,1.90
2022-09-20T04:45:38.850Z,1.70
2022-09-20T04:49:53.918Z,1.90
2022-09-20T04:54:02.391Z,2.07
2022-09-20T04:58:37.444Z,1.90
2022-09-20T05:02:40.025Z,1.77
2022-09-20T05:06:40.435Z,1.70
2022-09-20T05:10:43.606Z,2.07
2022-09-20T05:14:38.004Z,1.73
2022-09-20T05:18:44.846Z,2.13
2022-09-20T05:22:51.502Z,1.93
2022-09-20T05:26:47.369Z,1.90
2022-09-20T05:30:35.407Z,1.83
2022-09-20T05:34:23.983Z,2.13
2022-09-20T05:38:12.748Z,2.27
2022-09-20T05:41:59.539Z,2.03
2022-09-20T05:45:59.021Z,2.23
2022-09-20T05:49:48.336Z,2.20
2022-09-20T05:54:00.715Z,2.03
2022-09-20T05:57:56.456Z,2.53
2022-09-20T06:01:42.721Z,2.10
2022-09-20T06:05:34.326Z,2.70
2022-09-20T06:09:36.842Z,2.63
2022-09-20T06:13:37.233Z,3.10
2022-09-20T06:17:26.996Z,2.60
2022-09-20T06:21:17.403Z,2.70
2022-09-20T06:25:03.303Z,2.00
2022-09-20T06:28:50.162Z,2.40
2022-09-20T06:32:34.269Z,2.30
2022-09-20T06:36:38.062Z,2.23
2022-09-20T06:40:48.514Z,2.20
2022-09-20T06:44:32.569Z,2.07
2022-09-20T06:48:16.826Z,2.30
2022-09-20T06:51:59.495Z,2.20
2022-09-20T06:55:44.805Z,2.53
2022-09-20T06:59:27.493Z,2.10
2022-09-20T07:03:12.656Z,2.10
2022-09-20T07:07:01.019Z,2.40
2022-09-20T07:10:44.017Z,2.27
2022-09-20T07:14:27.600Z,2.10
2022-09-20T07:18:11.876Z,2.13
2022-09-20T07:21:54.877Z,2.87
2022-09-20T07:25:38.169Z,2.67
2022-09-20T07:29:20.869Z,2.30
2022-09-20T07:33:03.548Z,2.60
2022-09-20T07:36:47.673Z,2.50
2022-09-20T07:40:30.504Z,2.63
2022-09-20T07:44:22.472Z,2.57
2022-09-20T07:48:06.295Z,3.07
2022-09-20T07:51:50.740Z,2.73
2022-09-20T07:55:34.734Z,2.27
2022-09-20T07:59:17.630Z,2.50
2022-09-20T08:03:01.210Z,2.60
2022-09-20T08:06:45.873Z,2.77
2022-09-20T08:10:29.950Z,3.20
2022-09-20T08:14:14.603Z,2.97
2022-09-20T08:17:57.348Z,3.90
2022-09-20T08:21:41.122Z,3.60
2022-09-20T08:25:24.644Z,3.43
2022-09-20T08:29:08.807Z,3.50
2022-09-20T08:32:55.757Z,4.03
2022-09-20T08:36:41.531Z,3.43
2022-09-20T08:40:25.277Z,4.50
2022-09-20T08:44:16.022Z,3.43
2022-09-20T08:48:01.172Z,3.43
2022-09-20T08:51:48.575Z,3.87
2022-09-20T08:55:39.969Z,3.70
2022-09-20T08:59:26.015Z,4.10
2022-09-20T09:03:13.925Z,4.00
2022-09-20T09:06:56.578Z,4.40
2022-09-20T09:10:43.594Z,3.80
2022-09-20T09:14:46.747Z,3.83
2022-09-20T09:18:33.957Z,3.80
2022-09-20T09:22:23.185Z,3.90
2022-09-20T09:26:06.671Z,4.73
2022-09-20T09:29:52.728Z,4.80
2022-09-20T09:33:35.691Z,4.63
2022-09-20T09:37:29.083Z,4.17
2022-09-20T09:41:26.239Z,3.90
2022-09-20T09:45:14.955Z,3.60
2022-09-20T09:49:10.685Z,3.73
2022-09-20T09:53:02.875Z,3.30
2022-09-20T09:57:02.146Z,3.50
2022-09-20T10:00:46.917Z,3.87
2022-09-20T10:04:35.030Z,3.67
2022-09-20T10:08:31.472Z,3.10
2022-09-20T10:12:26.326Z,2.70
2022-09-20T10:16:17.643Z,2.40
2022-09-20T10:20:10.633Z,2.47
2022-09-20T10:24:03.765Z,2.47
2022-09-20T10:27:55.548Z,1.90
2022-09-20T10:31:48.299Z,2.27
2022-09-20T10:35:36.887Z,1.50
2022-09-20T10:39:21.366Z,2.00
2022-09-20T10:43:17.785Z,1.90
2022-09-20T10:47:06.805Z,1.90
2022-09-20T10:50:54.297Z,1.80
2022-09-20T10:54:49.350Z,1.80
2022-09-20T10:59:17.668Z,1.90
2022-09-20T11:03:17.209Z,1.57
2022-09-20T11:07:08.971Z,1.97
2022-09-20T11:10:53.314Z,1.80
2022-09-20T11:14:39.926Z,2.30
2022-09-20T11:18:28.268Z,2.17
2022-09-20T11:22:13.253Z,2.63
2022-09-20T11:25:58.683Z,2.30
2022-09-20T11:29:45.153Z,1.97
2022-09-20T11:33:31.055Z,1.90
2022-09-20T11:37:16.463Z,2.00
2022-09-20T11:41:02.372Z,1.90
2022-09-20T11:44:45.371Z,1.70
2022-09-20T11:48:35.497Z,1.50
2022-09-20T11:52:30.468Z,1.53
2022-09-20T11:56:18.361Z,1.50
2022-09-20T12:00:04.040Z,1.40
2022-09-20T12:04:08.673Z,1.40
2022-09-20T12:07:56.726Z,1.70
2022-09-20T12:11:41.254Z,1.60
2022-09-20T12:15:26.045Z,1.67
2022-09-20T12:19:12.234Z,1.43
2022-09-20T12:23:33.399Z,1.60
2022-09-20T12:27:44.311Z,1.93
2022-09-20T12:31:41.222Z,1.40
2022-09-20T12:36:14.754Z,1.77
2022-09-20T12:39:58.866Z,1.60
2022-09-20T12:43:57.870Z,1.33
2022-09-20T12:47:40.575Z,1.53
2022-09-20T12:51:44.309Z,2.00
2022-09-20T12:55:34.944Z,1.53
2022-09-20T12:59:23.984Z,1.87
2022-09-20T13:03:23.861Z,1.73
2022-09-20T13:07:43.866Z,1.70
2022-09-20T13:11:31.436Z,1.60
2022-09-20T13:15:18.716Z,1.57
2022-09-20T13:19:05.219Z,1.77
2022-09-20T13:22:48.803Z,1.80
2022-09-20T13:26:36.744Z,1.33
2022-09-20T13:30:21.141Z,1.53
2022-09-20T13:34:20.851Z,1.20
2022-09-20T13:38:06.986Z,1.40
2022-09-20T13:41:51.972Z,1.40
2022-09-20T13:46:10.419Z,1.30
2022-09-20T13:49:53.745Z,1.33
2022-09-20T13:53:43.503Z,1.47
2022-09-20T13:57:30.679Z,1.83
2022-09-20T14:01:23.969Z,1.70
2022-09-20T14:05:07.939Z,1.33
2022-09-20T14:08:52.393Z,1.47
2022-09-20T14:12:36.487Z,1.80
2022-09-20T14:16:20.457Z,1.50
2022-09-20T14:20:03.620Z,2.07
2022-09-20T14:23:52.031Z,1.70
2022-09-20T14:27:36.067Z,1.50
2022-09-20T14:31:22.067Z,1.63
2022-09-20T14:35:07.482Z,1.57
2022-09-20T14:38:52.344Z,2.03
2022-09-20T14:42:38.279Z,1.50
2022-09-20T14:46:21.138Z,1.53
2022-09-20T14:50:04.933Z,2.90
2022-09-20T14:53:49.355Z,1.33
2022-09-20T14:57:32.361Z,1.60
2022-09-20T15:01:24.367Z,1.30
2022-09-20T15:05:08.283Z,1.67
2022-09-20T15:08:53.655Z,1.70
2022-09-20T15:12:36.322Z,1.70
2022-09-20T15:16:35.019Z,1.40
2022-09-20T15:20:24.289Z,1.47
2022-09-20T15:24:07.470Z,1.87
2022-09-20T15:27:50.893Z,1.80
2022-09-20T15:31:35.289Z,2.20
2022-09-20T15:35:18.130Z,1.60
2022-09-20T15:39:05.015Z,1.33
2022-09-20T15:42:48.129Z,1.30
2022-09-20T15:46:42.567Z,1.50
2022-09-20T15:50:28.094Z,1.50
2022-09-20T15:54:13.309Z,1.30
2022-09-20T15:57:56.598Z,1.37
2022-09-20T16:01:40.836Z,1.20
2022-09-20T16:05:25.085Z,2.13
2022-09-20T16:09:08.687Z,1.70
2022-09-20T16:12:51.475Z,1.30
2022-09-20T16:16:39.975Z,1.20
2022-09-20T16:20:24.863Z,1.40
2022-09-20T16:24:08.516Z,1.30
2022-09-20T16:27:51.224Z,1.17
2022-09-20T16:31:39.851Z,1.23
2022-09-20T16:35:24.375Z,1.20
2022-09-20T16:39:07.746Z,1.60
2022-09-20T16:42:52.469Z,1.43
2022-09-20T16:46:37.212Z,1.60
2022-09-20T16:50:19.981Z,1.40
2022-09-20T16:54:16.162Z,1.40
2022-09-20T16:57:58.945Z,1.50
2022-09-20T17:01:42.393Z,1.80
2022-09-20T17:05:25.197Z,1.50
2022-09-20T17:09:11.079Z,1.37
2022-09-20T17:12:57.691Z,3.40
2022-09-20T17:16:42.321Z,1.93
2022-09-20T17:20:27.068Z,1.60
2022-09-20T17:24:11.689Z,1.40
2022-09-20T17:27:54.366Z,1.50
2022-09-20T17:31:39.169Z,1.60
2022-09-20T17:35:22.074Z,1.80
2022-09-20T17:39:16.886Z,1.90
2022-09-20T17:42:59.796Z,3.70
2022-09-20T17:46:45.316Z,1.80
2022-09-20T17:50:28.184Z,2.03
2022-09-20T17:54:22.308Z,2.93
2022-09-20T17:58:05.004Z,2.60
2022-09-20T18:01:49.478Z,2.30
2022-09-20T18:05:32.191Z,2.77
2022-09-20T18:09:32.162Z,2.20
2022-09-20T18:13:15.023Z,2.50
2022-09-20T18:17:00.825Z,2.70
2022-09-20T18:20:43.853Z,2.30
2022-09-20T18:24:43.177Z,2.10
2022-09-20T18:28:25.922Z,1.87
2022-09-20T18:32:08.764Z,2.37
2022-09-20T18:35:53.827Z,2.10
2022-09-20T18:39:44.538Z,2.07
2022-09-20T18:43:30.051Z,2.57
2022-09-20T18:47:12.807Z,2.47
2022-09-20T18:50:59.833Z,2.00
2022-09-20T18:54:43.885Z,2.60
2022-09-20T18:58:26.805Z,2.10
2022-09-20T19:02:49.322Z,2.20
2022-09-20T19:06:38.981Z,2.67
2022-09-20T19:10:28.265Z,2.10
2022-09-20T19:14:15.481Z,2.10
2022-09-20T19:18:14.209Z,2.20
2022-09-20T19:21:59.948Z,2.77
2022-09-20T19:25:46.865Z,2.43
2022-09-20T19:29:30.329Z,2.23
2022-09-20T19:33:17.553Z,2.20
2022-09-20T19:37:08.641Z,2.13
2022-09-20T19:40:58.795Z,3.17
2022-09-20T19:44:49.322Z,3.40
2022-09-20T19:48:37.027Z,3.70
2022-09-20T19:52:23.814Z,3.20
2022-09-20T19:56:22.422Z,3.47
2022-09-20T20:00:09.675Z,3.63
2022-09-20T20:03:53.660Z,2.80
2022-09-20T20:07:39.771Z,2.90
2022-09-20T20:11:33.313Z,2.63
2022-09-20T20:15:23.066Z,2.83
2022-09-20T20:19:14.300Z,3.70
2022-09-20T20:23:34.282Z,3.60
2022-09-20T20:27:18.353Z,4.23
2022-09-20T20:31:02.121Z,3.63
2022-09-20T20:34:45.227Z,3.67
2022-09-20T20:38:28.405Z,3.67
2022-09-20T20:42:12.930Z,3.70
2022-09-20T20:45:57.159Z,3.50
2022-09-20T20:49:42.597Z,4.07
2022-09-20T20:53:25.270Z,3.80
2022-09-20T20:57:07.920Z,4.23
2022-09-20T21:00:50.551Z,4.60
2022-09-20T21:04:35.293Z,4.23
2022-09-20T21:08:18.054Z,3.73
2022-09-20T21:12:00.768Z,4.00
2022-09-20T21:15:43.567Z,3.77
2022-09-20T21:19:26.276Z,3.60
2022-09-20T21:23:10.714Z,3.90
2022-09-20T21:26:53.748Z,5.60
2022-09-20T21:30:41.357Z,5.10
2022-09-20T21:34:24.702Z,4.27
2022-09-20T21:38:08.633Z,4.00
2022-09-20T21:41:53.151Z,3.87
2022-09-20T21:45:39.096Z,4.17
2022-09-20T21:49:21.924Z,4.07
2022-09-20T21:53:04.674Z,4.37
2022-09-20T21:56:53.560Z,3.60
2022-09-20T22:00:39.111Z,4.53
2022-09-20T22:04:24.293Z,4.70
2022-09-20T22:08:07.174Z,5.63
2022-09-20T22:11:50.276Z,2.83
2022-09-20T22:15:33.300Z,2.73
2022-09-20T22:19:18.694Z,2.50
2022-09-20T22:23:01.517Z,2.70
2022-09-20T22:26:45.703Z,3.57
2022-09-20T22:30:28.593Z,3.10
2022-09-20T22:34:11.656Z,3.10
2022-09-20T22:37:57.469Z,3.20
2022-09-20T22:41:42.769Z,4.47
2022-09-20T22:45:25.700Z,4.53
2022-09-20T22:49:16.110Z,3.90
2022-09-20T22:53:00.278Z,3.43
2022-09-20T22:56:45.522Z,3.70
2022-09-20T23:00:28.388Z,4.00
2022-09-20T23:04:12.895Z,3.00
2022-09-20T23:07:55.615Z,3.70
2022-09-20T23:11:42.013Z,3.63
2022-09-20T23:15:24.828Z,3.13
2022-09-20T23:19:08.727Z,3.07
2022-09-20T23:22:51.581Z,2.70
2022-09-20T23:26:36.702Z,3.00
2022-09-20T23:30:20.891Z,3.00
2022-09-20T23:34:05.832Z,2.80
2022-09-20T23:37:51.438Z,2.77
2022-09-20T23:41:49.979Z,2.90
2022-09-20T23:45:35.182Z,3.20
2022-09-20T23:49:22.621Z,2.60
2022-09-20T23:53:05.322Z,3.63
2022-09-20T23:56:48.465Z,2.77
